Time;durP1;ratioP1;P1;durP2;ratioP2;P2;SDS_P1;SDS_P2;PMS_P1;PMS_P2;Temp;Humidity;BMP_temperature;BMP_pressure;BME280_temperature;BME280_humidity;BME280_pressure;Samples;Min_cycle;Max_cycle;Signal;HPM_P1;HPM_P2
2021/11/25 00:00:41;;;;;;;36.58;20.58;;;;;;;;;;5072789;28;20384;-65
2021/11/25 00:03:07;;;;;;;29.92;17.90;;;;;;;;;;5073229;28;20025;-65
2021/11/25 00:05:34;;;;;;;30.23;17.02;;;;;;;;;;5073133;28;20481;-65
2021/11/25 00:08:02;;;;;;;24.55;14.60;;;;;;;;;;5072749;28;20032;-63
2021/11/25 00:10:29;;;;;;;30.52;18.10;;;;;;;;;;5071687;28;20082;-63
2021/11/25 00:12:55;;;;;;;30.45;17.05;;;;;;;;;;5071808;28;20532;-64
2021/11/25 00:15:21;;;;;;;26.80;18.08;;;;;;;;;;5072569;28;20029;-64
2021/11/25 00:17:48;;;;;;;36.63;18.20;;;;;;;;;;5073003;28;20082;-64
2021/11/25 00:20:14;;;;;;;27.92;16.05;;;;;;;;;;5072836;28;20082;-64
2021/11/25 00:22:41;;;;;;;27.33;16.73;;;;;;;;;;5072539;28;20035;-64
2021/11/25 00:25:08;;;;;;;31.58;18.40;;;;;;;;;;5071635;28;20055;-64
2021/11/25 00:27:34;;;;;;;34.47;19.52;;;;;;;;;;5072852;28;20472;-65
2021/11/25 00:30:00;;;;;;;33.40;20.75;;;;;;;;;;5072902;28;20024;-65
2021/11/25 00:32:26;;;;;;;30.92;20.25;;;;;;;;;;5072925;28;20029;-65
2021/11/25 00:34:53;;;;;;;36.45;20.50;;;;;;;;;;5072543;28;20020;-64
2021/11/25 00:37:19;;;;;;;28.52;17.85;;;;;;;;;;5072766;28;20098;-63
2021/11/25 00:39:45;;;;;;;33.20;18.23;;;;;;;;;;5074658;28;20044;-64
2021/11/25 00:42:11;;;;;;;29.15;17.88;;;;;;;;;;5075077;28;20051;-65
2021/11/25 00:44:37;;;;;;;29.30;18.15;;;;;;;;;;5058774;28;20020;-64
2021/11/25 00:47:04;;;;;;;32.80;17.83;;;;;;;;;;5076581;28;20034;-64
2021/11/25 00:49:30;;;;;;;27.30;17.25;;;;;;;;;;5074734;28;20028;-64
2021/11/25 00:51:56;;;;;;;31.10;17.58;;;;;;;;;;5076328;28;20107;-64
2021/11/25 00:54:22;;;;;;;25.65;16.17;;;;;;;;;;5076359;28;20103;-64
2021/11/25 00:56:48;;;;;;;33.08;18.35;;;;;;;;;;5075788;28;20074;-64
2021/11/25 00:59:14;;;;;;;26.05;16.50;;;;;;;;;;5076275;28;20158;-64
2021/11/25 01:01:41;;;;;;;27.08;17.52;;;;;;;;;;5076168;28;20116;-64
2021/11/25 01:04:07;;;;;;;30.13;19.48;;;;;;;;;;5075758;28;20036;-64
2021/11/25 01:06:33;;;;;;;36.05;20.23;;;;;;;;;;5075994;28;20499;-65
2021/11/25 01:08:59;;;;;;;28.95;18.25;;;;;;;;;;5076074;28;20025;-65
2021/11/25 01:11:25;;;;;;;31.40;17.27;;;;;;;;;;5074325;28;20021;-65
2021/11/25 01:13:55;;;;;;;31.08;18.67;;;;;;;;;;5076101;28;20024;-65
2021/11/25 01:16:22;;;;;;;27.83;16.48;;;;;;;;;;5076212;28;20031;-64
2021/11/25 01:18:49;;;;;;;29.42;15.70;;;;;;;;;;5075572;28;20025;-65
2021/11/25 01:21:15;;;;;;;30.80;18.63;;;;;;;;;;5075671;28;20025;-64
2021/11/25 01:23:42;;;;;;;22.83;14.85;;;;;;;;;;5074421;28;20017;-64
2021/11/25 01:26:08;;;;;;;27.23;16.30;;;;;;;;;;5075283;28;20044;-64
2021/11/25 01:28:34;;;;;;;26.90;16.75;;;;;;;;;;5075617;28;20106;-64
2021/11/25 01:31:01;;;;;;;29.15;16.88;;;;;;;;;;5075236;28;20034;-64
2021/11/25 01:33:28;;;;;;;27.00;15.35;;;;;;;;;;5075577;28;20092;-64
2021/11/25 01:35:54;;;;;;;23.85;15.20;;;;;;;;;;5074267;28;20035;-64
2021/11/25 01:38:21;;;;;;;29.35;16.02;;;;;;;;;;5073813;28;20043;-64
2021/11/25 01:40:48;;;;;;;25.55;14.43;;;;;;;;;;5075233;28;20425;-64
2021/11/25 01:43:15;;;;;;;25.02;15.00;;;;;;;;;;5074079;28;20415;-64
2021/11/25 01:45:41;;;;;;;29.60;16.17;;;;;;;;;;5073516;28;20024;-63
2021/11/25 01:48:08;;;;;;;23.90;15.05;;;;;;;;;;5074104;28;20365;-63
2021/11/25 01:50:34;;;;;;;23.10;14.20;;;;;;;;;;5073555;28;20029;-64
2021/11/25 01:53:01;;;;;;;24.13;13.60;;;;;;;;;;5074721;28;20493;-66
2021/11/25 01:55:27;;;;;;;21.70;14.00;;;;;;;;;;5073782;28;20039;-64
2021/11/25 01:57:54;;;;;;;21.15;13.25;;;;;;;;;;5073783;28;20016;-63
2021/11/25 02:00:29;;;;;;;23.88;14.05;;;;;;;;;;5074845;28;20373;-63
2021/11/25 02:02:55;;;;;;;26.88;16.42;;;;;;;;;;5075134;28;20086;-63
2021/11/25 02:05:21;;;;;;;22.65;13.35;;;;;;;;;;5073705;28;20058;-64
2021/11/25 02:07:48;;;;;;;21.20;13.43;;;;;;;;;;5073350;28;20377;-65
2021/11/25 02:10:15;;;;;;;22.20;14.15;;;;;;;;;;5074925;28;20024;-64
2021/11/25 02:12:41;;;;;;;23.30;13.43;;;;;;;;;;5074797;28;20142;-64
2021/11/25 02:15:09;;;;;;;19.88;12.15;;;;;;;;;;5073059;28;20025;-64
2021/11/25 02:17:36;;;;;;;21.23;12.35;;;;;;;;;;5074689;28;20520;-65
2021/11/25 02:20:04;;;;;;;25.10;13.90;;;;;;;;;;5074579;28;20170;-64
2021/11/25 02:22:30;;;;;;;25.10;11.95;;;;;;;;;;5074386;28;20029;-64
2021/11/25 02:24:56;;;;;;;20.60;11.93;;;;;;;;;;5073260;28;20112;-64
2021/11/25 02:27:23;;;;;;;20.45;11.20;;;;;;;;;;5074172;28;20025;-64
2021/11/25 02:29:50;;;;;;;21.45;12.02;;;;;;;;;;5073142;28;20025;-64
2021/11/25 02:32:32;;;;;;;16.30;11.00;;;;;;;;;;5074436;28;20055;-64
2021/11/25 02:34:58;;;;;;;20.38;11.02;;;;;;;;;;5072731;28;20031;-64
2021/11/25 02:37:25;;;;;;;23.48;12.45;;;;;;;;;;5074354;28;20097;-64
2021/11/25 02:39:51;;;;;;;21.05;11.95;;;;;;;;;;5074364;28;20040;-64
2021/11/25 02:42:18;;;;;;;17.15;10.90;;;;;;;;;;5073798;28;20121;-64
2021/11/25 02:44:44;;;;;;;21.45;12.15;;;;;;;;;;5072967;28;20105;-64
2021/11/25 02:47:10;;;;;;;20.75;12.27;;;;;;;;;;5072814;28;20024;-64
2021/11/25 02:49:39;;;;;;;23.88;13.48;;;;;;;;;;5073803;28;20050;-64
2021/11/25 02:52:06;;;;;;;19.15;11.80;;;;;;;;;;5072758;28;20028;-64
2021/11/25 02:54:32;;;;;;;22.45;11.35;;;;;;;;;;5072717;28;20031;-64
2021/11/25 02:56:58;;;;;;;17.98;11.65;;;;;;;;;;5073640;28;20017;-64
2021/11/25 02:59:24;;;;;;;20.88;11.00;;;;;;;;;;5072639;28;20025;-64
2021/11/25 03:01:50;;;;;;;22.45;11.60;;;;;;;;;;5073112;28;20036;-64
2021/11/25 03:04:16;;;;;;;23.42;14.43;;;;;;;;;;5073521;28;20373;-64
2021/11/25 03:06:43;;;;;;;25.80;14.27;;;;;;;;;;5073779;28;20060;-64
2021/11/25 03:09:09;;;;;;;24.15;13.65;;;;;;;;;;5072540;28;20020;-63
2021/11/25 03:11:37;;;;;;;23.23;13.52;;;;;;;;;;5073205;28;20100;-64
2021/11/25 03:14:04;;;;;;;25.83;15.23;;;;;;;;;;5072379;28;20024;-64
2021/11/25 03:16:31;;;;;;;23.48;13.77;;;;;;;;;;5073172;28;20504;-64
2021/11/25 03:18:58;;;;;;;26.58;15.10;;;;;;;;;;5073535;28;20024;-64
2021/11/25 03:21:24;;;;;;;25.95;15.43;;;;;;;;;;5073498;28;20081;-64
2021/11/25 03:23:51;;;;;;;20.40;12.30;;;;;;;;;;5073150;28;20480;-64
2021/11/25 03:26:18;;;;;;;19.48;12.38;;;;;;;;;;5073593;28;20477;-64
2021/11/25 03:28:45;;;;;;;22.15;12.98;;;;;;;;;;5073408;28;20017;-64
2021/11/25 03:31:13;;;;;;;23.02;13.93;;;;;;;;;;5073074;28;20101;-64
2021/11/25 03:33:39;;;;;;;25.55;14.52;;;;;;;;;;5073623;28;20024;-65
2021/11/25 03:36:07;;;;;;;33.22;18.33;;;;;;;;;;5073401;28;20476;-64
2021/11/25 03:38:33;;;;;;;30.75;17.33;;;;;;;;;;5072939;28;20485;-64
2021/11/25 03:41:00;;;;;;;27.13;16.27;;;;;;;;;;5073105;28;20047;-64
2021/11/25 03:43:27;;;;;;;35.38;17.10;;;;;;;;;;5073624;28;20024;-64
2021/11/25 03:45:53;;;;;;;34.30;17.20;;;;;;;;;;5072880;28;20031;-64
2021/11/25 03:48:22;;;;;;;34.13;18.33;;;;;;;;;;5073432;28;20377;-64
2021/11/25 03:50:48;;;;;;;39.50;17.50;;;;;;;;;;5073244;28;20389;-64
2021/11/25 03:53:14;;;;;;;35.72;18.58;;;;;;;;;;5073195;28;20077;-64
2021/11/25 03:55:40;;;;;;;33.25;17.33;;;;;;;;;;5073152;28;20028;-64
2021/11/25 03:58:06;;;;;;;37.85;19.77;;;;;;;;;;5073135;28;20073;-64
2021/11/25 04:00:33;;;;;;;36.85;17.98;;;;;;;;;;5072738;28;20029;-64
2021/11/25 04:02:59;;;;;;;38.65;20.00;;;;;;;;;;5073091;28;20125;-64
2021/11/25 04:05:25;;;;;;;42.13;21.88;;;;;;;;;;5073019;28;20021;-64
2021/11/25 04:07:52;;;;;;;43.63;23.65;;;;;;;;;;5072529;28;20148;-64
2021/11/25 04:10:18;;;;;;;38.33;21.42;;;;;;;;;;5073020;28;20025;-64
2021/11/25 04:12:45;;;;;;;40.00;20.80;;;;;;;;;;5071822;28;20104;-64
2021/11/25 04:15:12;;;;;;;34.92;17.90;;;;;;;;;;5077079;28;20024;-64
2021/11/25 04:17:38;;;;;;;33.90;18.35;;;;;;;;;;5075790;28;20112;-64
2021/11/25 04:20:05;;;;;;;37.63;22.10;;;;;;;;;;5076616;28;20477;-64
2021/11/25 04:22:31;;;;;;;33.45;17.95;;;;;;;;;;5077061;28;20099;-64
2021/11/25 04:24:57;;;;;;;32.38;17.65;;;;;;;;;;5076890;28;20096;-65
2021/11/25 04:27:24;;;;;;;28.55;15.70;;;;;;;;;;5076606;28;20028;-64
2021/11/25 04:30:23;;;;;;;27.42;15.80;;;;;;;;;;5076788;28;20032;-64
2021/11/25 04:35:29;;;;;;;22.63;13.63;;;;;;;;;;5076584;28;20056;-64
2021/11/25 04:38:06;;;;;;;27.23;16.95;;;;;;;;;;5075398;28;20035;-64
2021/11/25 04:40:35;;;;;;;23.55;13.27;;;;;;;;;;5076443;28;20068;-64
2021/11/25 04:43:01;;;;;;;30.33;17.75;;;;;;;;;;5074902;28;20070;-64
2021/11/25 04:45:28;;;;;;;32.72;18.20;;;;;;;;;;5076708;28;20087;-64
2021/11/25 04:47:54;;;;;;;28.85;18.48;;;;;;;;;;5076038;28;20020;-65
2021/11/25 04:50:20;;;;;;;29.27;17.50;;;;;;;;;;5075094;28;20396;-64
2021/11/25 04:52:47;;;;;;;31.20;17.92;;;;;;;;;;5076380;28;20024;-65
2021/11/25 04:55:14;;;;;;;24.55;14.57;;;;;;;;;;5074613;28;20652;-65
2021/11/25 04:57:40;;;;;;;27.02;14.60;;;;;;;;;;5074915;28;20025;-64
2021/11/25 05:00:08;;;;;;;22.88;12.90;;;;;;;;;;5075031;28;20435;-63
2021/11/25 05:02:34;;;;;;;28.00;15.40;;;;;;;;;;5075748;28;20056;-65
2021/11/25 05:05:01;;;;;;;28.98;13.50;;;;;;;;;;5076153;28;20472;-65
2021/11/25 05:07:27;;;;;;;26.02;15.30;;;;;;;;;;5076437;28;20027;-64
2021/11/25 05:09:53;;;;;;;23.65;13.43;;;;;;;;;;5075708;28;20097;-64
2021/11/25 05:12:19;;;;;;;29.50;15.10;;;;;;;;;;5076277;28;20017;-64
2021/11/25 05:14:45;;;;;;;33.83;18.63;;;;;;;;;;5075890;28;20032;-64
2021/11/25 05:17:12;;;;;;;40.47;22.35;;;;;;;;;;5075482;28;20017;-64
2021/11/25 05:19:38;;;;;;;30.73;17.08;;;;;;;;;;5075842;28;20070;-64
2021/11/25 05:22:04;;;;;;;25.40;13.48;;;;;;;;;;5074426;28;20447;-64
2021/11/25 05:24:30;;;;;;;22.23;13.57;;;;;;;;;;5073337;28;20387;-64
2021/11/25 05:26:57;;;;;;;25.52;12.77;;;;;;;;;;5075757;28;20091;-64
2021/11/25 05:29:23;;;;;;;24.67;14.25;;;;;;;;;;5075781;28;20035;-64
2021/11/25 05:31:50;;;;;;;27.80;16.75;;;;;;;;;;5075235;28;20129;-64
2021/11/25 05:34:16;;;;;;;26.75;14.05;;;;;;;;;;5075800;28;20027;-65
2021/11/25 05:36:43;;;;;;;28.08;17.15;;;;;;;;;;5075519;28;20035;-64
2021/11/25 05:39:10;;;;;;;31.90;17.63;;;;;;;;;;5074936;28;20028;-65
2021/11/25 05:41:37;;;;;;;25.23;15.68;;;;;;;;;;5075394;28;20111;-64
2021/11/25 05:44:04;;;;;;;33.30;16.50;;;;;;;;;;5074963;28;20469;-65
2021/11/25 05:46:30;;;;;;;24.15;13.25;;;;;;;;;;5075358;28;20035;-64
2021/11/25 05:48:56;;;;;;;25.83;14.95;;;;;;;;;;5075374;28;20020;-65
2021/11/25 05:51:23;;;;;;;25.55;13.35;;;;;;;;;;5073696;28;20045;-65
2021/11/25 05:53:49;;;;;;;22.80;12.65;;;;;;;;;;5073966;28;20035;-64
2021/11/25 05:56:15;;;;;;;23.33;13.65;;;;;;;;;;5073805;28;20491;-64
2021/11/25 05:58:41;;;;;;;25.90;14.48;;;;;;;;;;5074778;28;20456;-64
2021/11/25 06:01:08;;;;;;;24.98;14.25;;;;;;;;;;5074961;28;20056;-64
2021/11/25 06:03:34;;;;;;;24.45;14.20;;;;;;;;;;5075034;28;20033;-64
2021/11/25 06:06:00;;;;;;;20.98;11.93;;;;;;;;;;5073272;28;20032;-64
2021/11/25 06:08:27;;;;;;;21.00;11.43;;;;;;;;;;5073515;28;20036;-64
2021/11/25 06:10:53;;;;;;;19.75;11.57;;;;;;;;;;5074976;28;20095;-64
2021/11/25 06:13:19;;;;;;;20.98;12.38;;;;;;;;;;5074531;28;20048;-64
2021/11/25 06:15:47;;;;;;;26.77;14.77;;;;;;;;;;5074648;28;20032;-63
2021/11/25 06:18:13;;;;;;;20.80;11.95;;;;;;;;;;5072575;28;20051;-64
2021/11/25 06:20:40;;;;;;;21.15;12.70;;;;;;;;;;5070289;28;20082;-64
2021/11/25 06:23:06;;;;;;;25.40;12.18;;;;;;;;;;5069895;28;20096;-64
2021/11/25 06:25:35;;;;;;;23.27;13.25;;;;;;;;;;5070186;28;20028;-64
2021/11/25 06:28:05;;;;;;;20.92;13.15;;;;;;;;;;5073626;28;20013;-64
2021/11/25 06:30:32;;;;;;;35.70;18.67;;;;;;;;;;5052105;28;20021;-64
2021/11/25 06:32:58;;;;;;;24.50;14.25;;;;;;;;;;5054372;28;20020;-64
2021/11/25 06:35:24;;;;;;;21.83;12.25;;;;;;;;;;5058357;28;20048;-64
2021/11/25 06:37:54;;;;;;;22.48;12.82;;;;;;;;;;5064732;28;20362;-64
2021/11/25 06:40:25;;;;;;;23.77;13.73;;;;;;;;;;5052901;28;20044;-64
2021/11/25 06:42:52;;;;;;;23.45;14.90;;;;;;;;;;5072392;28;20598;-64
2021/11/25 06:45:18;;;;;;;24.92;14.48;;;;;;;;;;5065264;28;20050;-64
2021/11/25 06:47:47;;;;;;;24.85;13.90;;;;;;;;;;5069405;28;20036;-65
2021/11/25 06:50:13;;;;;;;26.83;14.88;;;;;;;;;;5059445;28;20046;-64
2021/11/25 06:52:40;;;;;;;28.52;16.20;;;;;;;;;;5064930;28;20043;-65
2021/11/25 06:55:07;;;;;;;29.27;18.15;;;;;;;;;;5071020;28;20071;-64
2021/11/25 06:57:33;;;;;;;20.63;12.65;;;;;;;;;;5071106;28;20020;-65
2021/11/25 06:59:59;;;;;;;23.15;12.32;;;;;;;;;;5071082;28;20029;-65
2021/11/25 07:02:26;;;;;;;35.15;20.05;;;;;;;;;;5070041;28;20040;-65
2021/11/25 07:04:52;;;;;;;25.95;14.68;;;;;;;;;;5072675;28;20016;-64
2021/11/25 07:07:19;;;;;;;27.33;14.25;;;;;;;;;;5072952;28;20032;-65
2021/11/25 07:09:45;;;;;;;29.98;16.10;;;;;;;;;;5073064;28;20105;-65
2021/11/25 07:12:12;;;;;;;28.48;15.00;;;;;;;;;;5073442;28;20358;-65
2021/11/25 07:14:38;;;;;;;26.67;12.18;;;;;;;;;;5054561;28;20029;-65
2021/11/25 07:17:04;;;;;;;21.02;11.30;;;;;;;;;;5072368;28;20033;-64
2021/11/25 07:19:32;;;;;;;21.88;12.05;;;;;;;;;;5071651;28;20020;-65
2021/11/25 07:21:58;;;;;;;18.58;12.25;;;;;;;;;;5055452;28;20346;-65
2021/11/25 07:24:24;;;;;;;23.23;12.25;;;;;;;;;;5073201;28;20476;-68
2021/11/25 07:26:50;;;;;;;19.95;12.45;;;;;;;;;;5073369;28;20107;-64
2021/11/25 07:29:17;;;;;;;22.38;11.95;;;;;;;;;;5070648;28;20100;-64
2021/11/25 07:31:46;;;;;;;20.60;12.00;;;;;;;;;;5070684;28;20060;-64
2021/11/25 07:34:12;;;;;;;17.17;10.60;;;;;;;;;;5073304;28;20051;-65
2021/11/25 07:36:38;;;;;;;23.58;12.82;;;;;;;;;;5072709;28;20048;-64
2021/11/25 07:39:05;;;;;;;26.50;13.60;;;;;;;;;;5053372;28;20099;-65
2021/11/25 07:41:31;;;;;;;18.17;10.43;;;;;;;;;;5070710;28;20036;-65
2021/11/25 07:43:58;;;;;;;21.50;12.05;;;;;;;;;;5056991;28;20101;-64
2021/11/25 07:46:24;;;;;;;25.17;14.52;;;;;;;;;;5067069;28;20024;-64
2021/11/25 07:48:50;;;;;;;27.23;13.35;;;;;;;;;;5069429;28;20024;-64
2021/11/25 07:51:16;;;;;;;24.17;15.05;;;;;;;;;;5069924;28;20031;-65
2021/11/25 07:53:43;;;;;;;24.92;13.57;;;;;;;;;;5070957;28;20024;-64
2021/11/25 07:56:09;;;;;;;38.67;15.60;;;;;;;;;;5070844;28;20435;-63
2021/11/25 07:58:35;;;;;;;22.45;12.95;;;;;;;;;;5069927;28;20035;-64
2021/11/25 08:01:01;;;;;;;21.33;12.50;;;;;;;;;;5072062;28;20039;-63
2021/11/25 08:03:28;;;;;;;23.65;13.60;;;;;;;;;;5072321;28;20023;-63
2021/11/25 08:05:54;;;;;;;19.42;11.35;;;;;;;;;;5072466;28;20063;-64
2021/11/25 08:08:20;;;;;;;20.38;12.88;;;;;;;;;;5064868;28;20032;-63
2021/11/25 08:10:47;;;;;;;21.45;12.13;;;;;;;;;;5041742;28;20033;-63
2021/11/25 08:13:13;;;;;;;17.08;9.88;;;;;;;;;;5061736;28;20063;-64
2021/11/25 08:15:39;;;;;;;17.77;11.18;;;;;;;;;;5052095;28;20025;-64
2021/11/25 08:18:06;;;;;;;17.38;10.23;;;;;;;;;;5053554;28;20449;-63
2021/11/25 08:20:32;;;;;;;25.60;16.38;;;;;;;;;;5071859;28;20033;-63
2021/11/25 08:22:58;;;;;;;33.42;18.20;;;;;;;;;;5072335;28;20029;-64
2021/11/25 08:25:25;;;;;;;28.60;16.98;;;;;;;;;;5070216;28;20021;-64
2021/11/25 08:27:55;;;;;;;32.03;18.88;;;;;;;;;;5071753;28;20056;-64
2021/11/25 08:30:23;;;;;;;25.70;14.73;;;;;;;;;;5072054;28;20036;-66
2021/11/25 08:32:49;;;;;;;32.20;19.30;;;;;;;;;;5071853;28;20017;-66
2021/11/25 08:35:15;;;;;;;56.38;28.52;;;;;;;;;;5054293;28;20028;-67
2021/11/25 08:37:42;;;;;;;51.60;28.20;;;;;;;;;;5054180;28;20060;-67
2021/11/25 08:40:10;;;;;;;22.67;12.90;;;;;;;;;;5071274;28;20859;-67
2021/11/25 08:42:36;;;;;;;25.33;12.60;;;;;;;;;;5072164;28;20033;-68
2021/11/25 08:45:03;;;;;;;26.95;16.23;;;;;;;;;;5052460;28;20481;-67
2021/11/25 08:47:29;;;;;;;21.80;11.63;;;;;;;;;;5069905;28;20032;-67
2021/11/25 08:49:56;;;;;;;19.50;11.75;;;;;;;;;;5071442;28;20024;-67
2021/11/25 08:52:22;;;;;;;20.85;13.43;;;;;;;;;;5071356;28;20027;-68
2021/11/25 08:54:49;;;;;;;18.35;11.77;;;;;;;;;;5071398;28;20107;-68
2021/11/25 08:57:15;;;;;;;20.02;11.15;;;;;;;;;;5052449;28;20052;-69
2021/11/25 08:59:42;;;;;;;18.67;10.10;;;;;;;;;;5046292;28;20020;-65
2021/11/25 09:02:09;;;;;;;15.15;9.27;;;;;;;;;;5048397;28;20021;-66
2021/11/25 09:04:35;;;;;;;20.35;11.98;;;;;;;;;;5057189;28;20108;-68
2021/11/25 09:07:02;;;;;;;17.48;11.07;;;;;;;;;;5074799;28;20056;-68
2021/11/25 09:09:28;;;;;;;15.32;8.70;;;;;;;;;;5071650;28;20017;-67
2021/11/25 09:11:54;;;;;;;17.52;11.00;;;;;;;;;;5075357;28;20028;-67
2021/11/25 09:14:21;;;;;;;21.65;13.05;;;;;;;;;;5073301;28;20522;-66
2021/11/25 09:16:47;;;;;;;20.42;12.40;;;;;;;;;;5061948;28;20037;-70
2021/11/25 09:19:14;;;;;;;21.42;11.77;;;;;;;;;;5039735;28;20052;-68
2021/11/25 09:21:40;;;;;;;18.25;11.38;;;;;;;;;;5063077;28;20056;-68
2021/11/25 09:24:08;;;;;;;14.63;9.35;;;;;;;;;;5054401;28;20501;-67
2021/11/25 09:26:35;;;;;;;19.50;12.38;;;;;;;;;;5070320;28;20535;-68
2021/11/25 09:29:01;;;;;;;28.27;15.48;;;;;;;;;;5074689;28;20050;-68
2021/11/25 09:31:28;;;;;;;19.60;11.13;;;;;;;;;;5074654;28;20590;-68
2021/11/25 09:33:55;;;;;;;21.30;11.90;;;;;;;;;;5075026;28;20047;-68
2021/11/25 09:36:21;;;;;;;18.67;10.52;;;;;;;;;;5074171;28;20029;-67
2021/11/25 09:38:47;;;;;;;30.42;17.05;;;;;;;;;;5074610;28;20021;-67
2021/11/25 09:41:14;;;;;;;22.35;12.63;;;;;;;;;;5074620;28;20101;-67
2021/11/25 09:43:41;;;;;;;24.48;14.85;;;;;;;;;;5056716;28;20017;-66
2021/11/25 09:46:08;;;;;;;24.45;12.98;;;;;;;;;;5068302;28;20361;-67
2021/11/25 09:48:35;;;;;;;16.90;9.77;;;;;;;;;;5058063;28;20024;-68
2021/11/25 09:51:01;;;;;;;23.80;13.35;;;;;;;;;;5053376;28;20021;-69
2021/11/25 09:53:28;;;;;;;17.52;9.05;;;;;;;;;;5053191;28;20110;-69
2021/11/25 09:55:55;;;;;;;20.17;12.27;;;;;;;;;;5072634;28;20024;-69
2021/11/25 09:58:23;;;;;;;21.70;13.68;;;;;;;;;;5073749;28;20461;-69
2021/11/25 10:00:51;;;;;;;22.30;11.65;;;;;;;;;;5073018;28;20330;-68
2021/11/25 10:03:18;;;;;;;21.33;13.10;;;;;;;;;;5074245;28;20025;-67
2021/11/25 10:05:56;;;;;;;23.77;13.48;;;;;;;;;;5073935;28;20020;-67
2021/11/25 10:08:45;;;;;;;20.02;12.77;;;;;;;;;;5074333;28;20024;-66
2021/11/25 10:11:11;;;;;;;27.50;14.38;;;;;;;;;;5055908;28;20114;-66
2021/11/25 10:13:40;;;;;;;28.15;17.30;;;;;;;;;;5055835;28;20016;-68
2021/11/25 10:16:09;;;;;;;21.15;10.93;;;;;;;;;;5056367;28;20035;-68
2021/11/25 10:18:36;;;;;;;21.58;13.05;;;;;;;;;;5055653;28;20016;-67
2021/11/25 10:21:04;;;;;;;16.27;9.43;;;;;;;;;;5070631;28;20021;-67
2021/11/25 10:24:37;;;;;;;21.08;11.23;;;;;;;;;;5109572;27;20385;-67
2021/11/25 10:27:12;;;;;;;16.40;9.00;;;;;;;;;;5107340;28;20712;-66
2021/11/25 10:29:39;;;;;;;20.20;12.25;;;;;;;;;;5108664;28;20035;-66
2021/11/25 10:32:05;;;;;;;18.55;11.25;;;;;;;;;;5110012;28;20030;-66
2021/11/25 10:34:40;;;;;;;24.15;14.23;;;;;;;;;;5104784;28;20036;-67
2021/11/25 10:37:18;;;;;;;20.02;12.82;;;;;;;;;;5109585;28;20024;-67
2021/11/25 10:42:33;;;;;;;22.25;12.45;;;;;;;;;;5110096;28;20024;-67
2021/11/25 10:44:59;;;;;;;27.85;17.85;;;;;;;;;;5105232;28;20024;-67
2021/11/25 10:47:28;;;;;;;22.52;12.45;;;;;;;;;;5107773;28;20043;-67
2021/11/25 10:49:56;;;;;;;21.48;13.00;;;;;;;;;;5107992;28;20035;-67
2021/11/25 10:52:26;;;;;;;20.60;10.57;;;;;;;;;;5108165;28;20109;-67
2021/11/25 10:54:53;;;;;;;25.60;14.05;;;;;;;;;;5106687;28;20072;-66
2021/11/25 10:57:21;;;;;;;20.70;12.27;;;;;;;;;;5108058;28;20480;-66
2021/11/25 11:01:12;;;;;;;24.80;14.18;;;;;;;;;;5108666;27;20125;-68
2021/11/25 11:03:56;;;;;;;31.05;17.92;;;;;;;;;;5089657;28;20025;-68
2021/11/25 11:06:30;;;;;;;19.92;10.73;;;;;;;;;;5089506;28;20499;-67
2021/11/25 11:08:56;;;;;;;21.27;11.95;;;;;;;;;;5104197;28;20062;-67
2021/11/25 11:11:22;;;;;;;13.93;8.00;;;;;;;;;;5110426;28;20019;-66
2021/11/25 11:14:11;;;;;;;13.45;6.97;;;;;;;;;;5108498;28;20024;-67
2021/11/25 11:17:04;;;;;;;15.25;8.93;;;;;;;;;;5108052;28;20036;-67
2021/11/25 11:19:30;;;;;;;13.90;7.82;;;;;;;;;;5108919;28;20032;-67
2021/11/25 11:21:58;;;;;;;16.60;8.85;;;;;;;;;;5106606;28;20030;-67
2021/11/25 11:24:30;;;;;;;17.27;9.48;;;;;;;;;;5109819;28;20020;-67
2021/11/25 11:26:58;;;;;;;18.83;9.90;;;;;;;;;;5110195;28;20106;-67
2021/11/25 11:29:29;;;;;;;17.55;10.00;;;;;;;;;;5107903;28;20054;-67
2021/11/25 11:31:59;;;;;;;18.63;10.50;;;;;;;;;;5108430;28;20027;-66
2021/11/25 11:34:27;;;;;;;17.55;10.98;;;;;;;;;;5105662;28;20035;-67
2021/11/25 11:36:54;;;;;;;16.92;10.45;;;;;;;;;;5102181;28;20031;-67
2021/11/25 11:39:22;;;;;;;22.50;11.35;;;;;;;;;;5105295;28;20016;-67
2021/11/25 11:41:49;;;;;;;19.85;10.07;;;;;;;;;;5104748;28;20422;-66
2021/11/25 11:44:20;;;;;;;19.83;10.60;;;;;;;;;;5105221;28;20098;-67
2021/11/25 11:46:47;;;;;;;20.38;10.07;;;;;;;;;;5106085;28;20028;-67
2021/11/25 11:49:15;;;;;;;13.63;8.20;;;;;;;;;;5106426;28;20024;-67
2021/11/25 11:51:41;;;;;;;14.05;7.78;;;;;;;;;;5105644;28;20019;-67
2021/11/25 11:54:19;;;;;;;35.47;17.48;;;;;;;;;;5109652;28;20060;-67
2021/11/25 11:56:47;;;;;;;38.00;17.48;;;;;;;;;;5106843;28;20081;-67
2021/11/25 11:59:15;;;;;;;24.88;14.98;;;;;;;;;;5107529;28;20047;-67
2021/11/25 12:01:42;;;;;;;13.07;7.57;;;;;;;;;;5109742;28;20016;-67
2021/11/25 12:04:13;;;;;;;15.95;8.90;;;;;;;;;;5107614;28;20165;-67
2021/11/25 12:06:40;;;;;;;17.23;9.13;;;;;;;;;;5109296;28;20095;-67
2021/11/25 12:09:14;;;;;;;16.33;9.23;;;;;;;;;;5107577;28;20028;-69
2021/11/25 12:11:44;;;;;;;16.85;9.40;;;;;;;;;;5097034;28;20365;-67
2021/11/25 12:14:18;;;;;;;18.13;10.90;;;;;;;;;;5094705;28;20016;-67
2021/11/25 12:16:52;;;;;;;15.68;9.00;;;;;;;;;;5095152;28;20028;-69
2021/11/25 12:19:36;;;;;;;21.85;12.07;;;;;;;;;;5094226;28;20798;-67
2021/11/25 12:22:02;;;;;;;;;;;;;;;;;;5095863;28;20028;-67
2021/11/25 12:24:33;;;;;;;16.67;9.70;;;;;;;;;;5095550;28;19914;-67
2021/11/25 12:26:59;;;;;;;28.02;13.82;;;;;;;;;;5094505;28;20481;-68
2021/11/25 12:29:44;;;;;;;23.35;12.07;;;;;;;;;;5095805;28;20016;-67
2021/11/25 12:32:27;;;;;;;26.85;11.98;;;;;;;;;;5093755;28;20028;-68
2021/11/25 12:34:54;;;;;;;18.92;10.48;;;;;;;;;;5094822;28;20024;-67
2021/11/25 12:37:39;;;;;;;35.28;16.08;;;;;;;;;;5092167;28;20050;-68
2021/11/25 12:40:05;;;;;;;34.20;13.85;;;;;;;;;;5067964;28;20048;-66
2021/11/25 12:42:31;;;;;;;41.70;19.00;;;;;;;;;;5072526;28;20012;-67
2021/11/25 12:44:57;;;;;;;23.77;11.68;;;;;;;;;;5072327;28;20625;-67
2021/11/25 12:47:24;;;;;;;22.75;12.27;;;;;;;;;;5067901;28;20047;-68
2021/11/25 12:49:50;;;;;;;20.17;11.00;;;;;;;;;;5067641;28;20111;-67
2021/11/25 12:52:31;;;;;;;22.90;11.32;;;;;;;;;;5074477;28;20384;-67
2021/11/25 12:55:04;;;;;;;32.25;16.27;;;;;;;;;;5069191;28;20028;-67
2021/11/25 12:57:48;;;;;;;32.92;16.33;;;;;;;;;;5074816;28;20354;-67
2021/11/25 13:00:17;;;;;;;28.60;15.30;;;;;;;;;;5072711;28;20076;-66
2021/11/25 13:02:43;;;;;;;19.02;9.57;;;;;;;;;;5072663;28;20430;-67
2021/11/25 13:05:10;;;;;;;26.80;13.98;;;;;;;;;;5072064;28;20388;-67
2021/11/25 13:07:47;;;;;;;23.50;11.82;;;;;;;;;;5072617;28;20031;-67
2021/11/25 13:10:23;;;;;;;23.67;13.80;;;;;;;;;;5072953;28;20430;-67
2021/11/25 13:12:50;;;;;;;24.38;12.13;;;;;;;;;;5074441;28;20072;-67
2021/11/25 13:15:16;;;;;;;26.48;11.70;;;;;;;;;;5072343;28;20373;-67
2021/11/25 13:17:58;;;;;;;28.70;14.43;;;;;;;;;;5088867;28;20024;-67
2021/11/25 13:20:43;;;;;;;22.85;11.25;;;;;;;;;;5094480;28;20062;-66
2021/11/25 13:23:10;;;;;;;27.17;15.02;;;;;;;;;;5091684;28;20032;-67
2021/11/25 13:26:06;;;;;;;29.50;15.85;;;;;;;;;;5094090;28;20028;-66
2021/11/25 13:28:33;;;;;;;25.75;13.52;;;;;;;;;;5077110;28;20036;-67
2021/11/25 13:31:09;;;;;;;26.98;14.85;;;;;;;;;;5093627;28;20099;-66
2021/11/25 13:33:54;;;;;;;49.42;24.33;;;;;;;;;;5092562;28;20024;-67
2021/11/25 13:36:21;;;;;;;31.63;17.15;;;;;;;;;;5092212;28;20052;-67
2021/11/25 13:38:51;;;;;;;37.58;20.13;;;;;;;;;;5072457;28;20432;-68
2021/11/25 13:41:21;;;;;;;25.33;13.35;;;;;;;;;;5073014;28;20032;-67
2021/11/25 13:43:51;;;;;;;21.17;13.70;;;;;;;;;;5073685;28;20020;-67
2021/11/25 13:46:18;;;;;;;19.40;11.55;;;;;;;;;;5090026;28;20031;-66
2021/11/25 13:48:44;;;;;;;17.67;9.48;;;;;;;;;;5094433;28;20016;-67
2021/11/25 13:51:23;;;;;;;22.88;12.32;;;;;;;;;;5093979;28;20095;-67
2021/11/25 13:53:49;;;;;;;29.25;21.35;;;;;;;;;;5094336;28;20569;-67
2021/11/25 13:56:16;;;;;;;32.60;22.40;;;;;;;;;;5090990;28;20085;-67
2021/11/25 13:58:43;;;;;;;36.63;22.83;;;;;;;;;;5088658;28;20021;-67
2021/11/25 14:01:10;;;;;;;23.42;15.82;;;;;;;;;;5109990;28;20047;-67
2021/11/25 14:03:37;;;;;;;24.45;14.48;;;;;;;;;;5114077;28;20016;-68
2021/11/25 14:06:05;;;;;;;26.70;17.00;;;;;;;;;;5096105;28;20153;-68
2021/11/25 14:08:32;;;;;;;32.90;19.25;;;;;;;;;;5098803;28;20023;-67
2021/11/25 14:11:14;;;;;;;40.15;22.27;;;;;;;;;;5093603;28;20020;-67
2021/11/25 14:13:40;;;;;;;35.15;19.95;;;;;;;;;;5093987;28;20024;-67
2021/11/25 14:16:17;;;;;;;41.92;23.70;;;;;;;;;;5093976;28;20390;-68
2021/11/25 14:18:43;;;;;;;27.75;16.38;;;;;;;;;;5093561;28;20020;-67
2021/11/25 14:21:09;;;;;;;34.88;18.70;;;;;;;;;;5093542;28;20077;-67
2021/11/25 14:23:36;;;;;;;28.75;17.48;;;;;;;;;;5093850;28;20024;-68
2021/11/25 14:26:12;;;;;;;27.27;16.30;;;;;;;;;;5093578;28;20016;-68
2021/11/25 14:31:24;;;;;;;26.17;13.07;;;;;;;;;;5092367;28;20055;-67
2021/11/25 14:33:51;;;;;;;21.60;13.13;;;;;;;;;;5092058;28;20142;-67